sensor_id;sensor_type;location;lat;lon;timestamp;temperature;humidity
5956;DHT22;3004;48.080;11.600;2023-06-22T04:34:00;17.40;99.90
5956;DHT22;3004;48.080;11.600;2023-06-22T04:36:33;17.60;99.90
5956;DHT22;3004;48.080;11.600;2023-06-22T04:39:04;17.70;99.90
5956;DHT22;3004;48.080;11.600;2023-06-22T04:41:31;17.80;99.90
5956;DHT22;3004;48.080;11.600;2023-06-22T04:44:07;18.20;99.90
5956;DHT22;3004;48.080;11.600;2023-06-22T04:46:34;18.60;99.90
5956;DHT22;3004;48.080;11.600;2023-06-22T04:49:06;18.70;99.90
5956;DHT22;3004;48.080;11.600;2023-06-22T04:51:37;18.80;99.90
5956;DHT22;3004;48.080;11.600;2023-06-22T04:57:29;19.00;99.90
5956;DHT22;3004;48.080;11.600;2023-06-22T04:59:58;19.10;99.90
5956;DHT22;3004;48.080;11.600;2023-06-22T05:04:54;19.10;99.90
5956;DHT22;3004;48.080;11.600;2023-06-22T05:06:05;19.10;99.90
5956;DHT22;3004;48.080;11.600;2023-06-22T05:08:37;19.20;99.90
5956;DHT22;3004;48.080;11.600;2023-06-22T05:11:06;19.30;99.90
5956;DHT22;3004;48.080;11.600;2023-06-22T05:13:59;19.50;99.90
5956;DHT22;3004;48.080;11.600;2023-06-22T05:16:41;19.50;99.90
5956;DHT22;3004;48.080;11.600;2023-06-22T05:19:19;19.50;99.90
5956;DHT22;3004;48.080;11.600;2023-06-22T05:25:21;19.70;99.90
5956;DHT22;3004;48.080;11.600;2023-06-22T05:27:48;19.80;99.90
5956;DHT22;3004;48.080;11.600;2023-06-22T05:30:19;19.90;99.90
5956;DHT22;3004;48.080;11.600;2023-06-22T05:32:46;20.10;99.90
5956;DHT22;3004;48.080;11.600;2023-06-22T05:35:13;20.20;99.90
5956;DHT22;3004;48.080;11.600;2023-06-22T05:41:29;20.50;99.90
5956;DHT22;3004;48.080;11.600;2023-06-22T05:44:25;20.50;99.90
5956;DHT22;3004;48.080;11.600;2023-06-22T05:46:58;20.60;99.90
5956;DHT22;3004;48.080;11.600;2023-06-22T05:49:28;20.80;99.90
5956;DHT22;3004;48.080;11.600;2023-06-22T05:51:58;20.80;99.90
5956;DHT22;3004;48.080;11.600;2023-06-22T05:54:47;20.80;99.90
5956;DHT22;3004;48.080;11.600;2023-06-22T05:57:17;21.00;99.90
5956;DHT22;3004;48.080;11.600;2023-06-22T05:59:47;21.10;99.90
5956;DHT22;3004;48.080;11.600;2023-06-22T06:02:14;21.30;99.90
5956;DHT22;3004;48.080;11.600;2023-06-22T06:04:59;21.40;99.90
5956;DHT22;3004;48.080;11.600;2023-06-22T06:07:28;21.50;99.90
5956;DHT22;3004;48.080;11.600;2023-06-22T06:09:58;21.60;99.90
5956;DHT22;3004;48.080;11.600;2023-06-22T06:12:26;21.70;99.90
5956;DHT22;3004;48.080;11.600;2023-06-22T06:15:13;21.60;99.90
5956;DHT22;3004;48.080;11.600;2023-06-22T06:17:47;21.70;99.90
5956;DHT22;3004;48.080;11.600;2023-06-22T06:20:39;21.70;99.90
5956;DHT22;3004;48.080;11.600;2023-06-22T06:30:20;22.00;99.90
5956;DHT22;3004;48.080;11.600;2023-06-22T06:33:01;22.00;99.90
5956;DHT22;3004;48.080;11.600;2023-06-22T06:36:00;22.00;99.90
5956;DHT22;3004;48.080;11.600;2023-06-22T06:42:28;22.50;99.90
5956;DHT22;3004;48.080;11.600;2023-06-22T06:44:57;22.50;99.90
5956;DHT22;3004;48.080;11.600;2023-06-22T06:50:46;22.90;99.90
5956;DHT22;3004;48.080;11.600;2023-06-22T06:53:16;23.00;99.90
5956;DHT22;3004;48.080;11.600;2023-06-22T06:55:46;22.90;99.90
5956;DHT22;3004;48.080;11.600;2023-06-22T06:58:18;23.10;99.90
5956;DHT22;3004;48.080;11.600;2023-06-22T07:00:52;23.20;99.90
5956;DHT22;3004;48.080;11.600;2023-06-22T07:06:51;23.40;99.90
5956;DHT22;3004;48.080;11.600;2023-06-22T07:09:17;23.60;99.90
5956;DHT22;3004;48.080;11.600;2023-06-22T07:18:15;24.00;99.90
5956;DHT22;3004;48.080;11.600;2023-06-22T07:20:53;23.80;99.90
5956;DHT22;3004;48.080;11.600;2023-06-22T07:23:33;23.90;99.90
5956;DHT22;3004;48.080;11.600;2023-06-22T07:26:10;24.10;99.90
5956;DHT22;3004;48.080;11.600;2023-06-22T07:28:38;24.40;99.90
5956;DHT22;3004;48.080;11.600;2023-06-22T07:31:06;24.40;99.90
5956;DHT22;3004;48.080;11.600;2023-06-22T07:36:51;24.40;99.90
5956;DHT22;3004;48.080;11.600;2023-06-22T07:39:24;24.60;99.90
5956;DHT22;3004;48.080;11.600;2023-06-22T07:42:13;24.60;99.90
5956;DHT22;3004;48.080;11.600;2023-06-22T07:44:56;24.70;99.90
5956;DHT22;3004;48.080;11.600;2023-06-22T07:50:46;24.90;99.90
5956;DHT22;3004;48.080;11.600;2023-06-22T08:06:43;25.60;99.90
5956;DHT22;3004;48.080;11.600;2023-06-22T08:09:11;25.90;99.90
5956;DHT22;3004;48.080;11.600;2023-06-22T08:11:51;26.00;99.90
5956;DHT22;3004;48.080;11.600;2023-06-22T08:14:21;26.00;99.90
5956;DHT22;3004;48.080;11.600;2023-06-22T08:16:51;26.10;99.90
5956;DHT22;3004;48.080;11.600;2023-06-22T08:19:47;26.10;99.90
5956;DHT22;3004;48.080;11.600;2023-06-22T08:39:52;26.60;99.90
5956;DHT22;3004;48.080;11.600;2023-06-22T08:45:47;26.80;99.90
5956;DHT22;3004;48.080;11.600;2023-06-22T08:48:14;26.70;99.90
5956;DHT22;3004;48.080;11.600;2023-06-22T08:50:55;26.60;99.90
5956;DHT22;3004;48.080;11.600;2023-06-22T08:56:45;27.10;99.90
5956;DHT22;3004;48.080;11.600;2023-06-22T08:59:21;27.20;99.90
5956;DHT22;3004;48.080;11.600;2023-06-22T09:02:22;27.10;99.90
5956;DHT22;3004;48.080;11.600;2023-06-22T09:05:26;27.10;99.90
5956;DHT22;3004;48.080;11.600;2023-06-22T09:08:13;27.40;99.90
5956;DHT22;3004;48.080;11.600;2023-06-22T09:10:49;27.80;99.90
5956;DHT22;3004;48.080;11.600;2023-06-22T09:13:30;27.90;99.90
5956;DHT22;3004;48.080;11.600;2023-06-22T09:19:53;27.90;99.90
5956;DHT22;3004;48.080;11.600;2023-06-22T09:43:19;28.90;99.90
5956;DHT22;3004;48.080;11.600;2023-06-22T09:45:55;28.90;99.90
5956;DHT22;3004;48.080;11.600;2023-06-22T09:48:34;29.10;99.90
5956;DHT22;3004;48.080;11.600;2023-06-22T10:11:20;30.00;99.90
5956;DHT22;3004;48.080;11.600;2023-06-22T10:14:16;30.00;99.90
5956;DHT22;3004;48.080;11.600;2023-06-22T10:16:43;30.00;99.90
5956;DHT22;3004;48.080;11.600;2023-06-22T10:19:16;30.10;99.90
5956;DHT22;3004;48.080;11.600;2023-06-22T10:22:01;30.20;99.90
5956;DHT22;3004;48.080;11.600;2023-06-22T10:24:43;30.40;99.90
5956;DHT22;3004;48.080;11.600;2023-06-22T10:27:31;30.50;99.90
5956;DHT22;3004;48.080;11.600;2023-06-22T10:33:31;30.80;99.90
5956;DHT22;3004;48.080;11.600;2023-06-22T10:52:39;31.00;99.90
5956;DHT22;3004;48.080;11.600;2023-06-22T11:12:36;31.70;99.90
5956;DHT22;3004;48.080;11.600;2023-06-22T11:15:40;31.40;99.90
5956;DHT22;3004;48.080;11.600;2023-06-22T11:18:07;31.00;99.90
5956;DHT22;3004;48.080;11.600;2023-06-22T11:20:37;31.00;99.90
5956;DHT22;3004;48.080;11.600;2023-06-22T11:37:23;31.90;99.90
5956;DHT22;3004;48.080;11.600;2023-06-22T11:50:19;31.90;99.90
5956;DHT22;3004;48.080;11.600;2023-06-22T12:00:00;32.20;99.90
5956;DHT22;3004;48.080;11.600;2023-06-22T12:16:18;32.30;99.90
5956;DHT22;3004;48.080;11.600;2023-06-22T12:28:52;32.70;99.90
5956;DHT22;3004;48.080;11.600;2023-06-22T12:45:29;32.70;99.90
5956;DHT22;3004;48.080;11.600;2023-06-22T12:47:59;32.80;99.90
5956;DHT22;3004;48.080;11.600;2023-06-22T12:50:32;32.70;99.90
5956;DHT22;3004;48.080;11.600;2023-06-22T12:53:01;32.70;99.90
5956;DHT22;3004;48.080;11.600;2023-06-22T13:02:09;32.70;99.90
5956;DHT22;3004;48.080;11.600;2023-06-22T13:04:39;32.50;99.90
5956;DHT22;3004;48.080;11.600;2023-06-22T13:07:20;32.60;99.90
5956;DHT22;3004;48.080;11.600;2023-06-22T13:10:24;32.60;99.90
5956;DHT22;3004;48.080;11.600;2023-06-22T13:12:55;32.70;99.90
5956;DHT22;3004;48.080;11.600;2023-06-22T13:15:40;32.80;99.90
5956;DHT22;3004;48.080;11.600;2023-06-22T13:18:20;33.10;99.90
5956;DHT22;3004;48.080;11.600;2023-06-22T13:23:50;32.80;99.90
5956;DHT22;3004;48.080;11.600;2023-06-22T13:27:07;32.80;99.90
5956;DHT22;3004;48.080;11.600;2023-06-22T13:29:34;32.90;99.90
5956;DHT22;3004;48.080;11.600;2023-06-22T13:32:04;33.00;99.90
5956;DHT22;3004;48.080;11.600;2023-06-22T13:35:03;32.70;99.90
5956;DHT22;3004;48.080;11.600;2023-06-22T13:37:44;33.00;99.90
5956;DHT22;3004;48.080;11.600;2023-06-22T13:40:12;33.20;99.90
5956;DHT22;3004;48.080;11.600;2023-06-22T13:42:42;33.40;99.90
5956;DHT22;3004;48.080;11.600;2023-06-22T13:45:24;33.10;99.90
5956;DHT22;3004;48.080;11.600;2023-06-22T13:48:01;33.10;99.90
5956;DHT22;3004;48.080;11.600;2023-06-22T13:50:58;33.10;99.90
5956;DHT22;3004;48.080;11.600;2023-06-22T13:57:02;33.10;99.90
5956;DHT22;3004;48.080;11.600;2023-06-22T14:00:01;33.30;99.90
5956;DHT22;3004;48.080;11.600;2023-06-22T14:02:56;33.00;99.90
5956;DHT22;3004;48.080;11.600;2023-06-22T14:09:00;33.30;99.90
5956;DHT22;3004;48.080;11.600;2023-06-22T14:11:49;33.50;99.90
5956;DHT22;3004;48.080;11.600;2023-06-22T14:15:12;33.40;99.90
5956;DHT22;3004;48.080;11.600;2023-06-22T14:17:44;33.30;99.90
5956;DHT22;3004;48.080;11.600;2023-06-22T14:20:12;33.30;99.90
5956;DHT22;3004;48.080;11.600;2023-06-22T14:22:45;33.00;99.90
5956;DHT22;3004;48.080;11.600;2023-06-22T14:25:23;32.90;99.90
5956;DHT22;3004;48.080;11.600;2023-06-22T14:28:03;32.90;99.90
5956;DHT22;3004;48.080;11.600;2023-06-22T14:30:31;33.20;99.90
5956;DHT22;3004;48.080;11.600;2023-06-22T14:33:45;33.00;99.90
5956;DHT22;3004;48.080;11.600;2023-06-22T14:36:37;33.00;99.90
5956;DHT22;3004;48.080;11.600;2023-06-22T14:42:31;33.10;99.90
5956;DHT22;3004;48.080;11.600;2023-06-22T14:51:29;33.30;99.90
5956;DHT22;3004;48.080;11.600;2023-06-22T14:53:59;33.10;99.90
5956;DHT22;3004;48.080;11.600;2023-06-22T15:03:11;32.70;99.90
5956;DHT22;3004;48.080;11.600;2023-06-22T15:05:43;32.60;99.90
5956;DHT22;3004;48.080;11.600;2023-06-22T15:08:39;32.50;99.90
5956;DHT22;3004;48.080;11.600;2023-06-22T15:12:20;32.50;99.90
5956;DHT22;3004;48.080;11.600;2023-06-22T15:14:33;32.30;99.90
5956;DHT22;3004;48.080;11.600;2023-06-22T15:17:10;32.20;99.90
5956;DHT22;3004;48.080;11.600;2023-06-22T15:20:01;32.30;99.90
5956;DHT22;3004;48.080;11.600;2023-06-22T15:22:30;32.20;99.90
5956;DHT22;3004;48.080;11.600;2023-06-22T15:25:00;32.10;99.90
5956;DHT22;3004;48.080;11.600;2023-06-22T15:27:54;32.00;99.90
5956;DHT22;3004;48.080;11.600;2023-06-22T15:30:23;32.20;99.90
5956;DHT22;3004;48.080;11.600;2023-06-22T15:33:13;32.00;99.90
5956;DHT22;3004;48.080;11.600;2023-06-22T15:36:12;31.90;99.90
5956;DHT22;3004;48.080;11.600;2023-06-22T15:45:14;32.20;99.90
5956;DHT22;3004;48.080;11.600;2023-06-22T15:53:14;31.90;99.90
5956;DHT22;3004;48.080;11.600;2023-06-22T15:55:41;32.00;99.90
5956;DHT22;3004;48.080;11.600;2023-06-22T15:58:21;32.10;99.90
5956;DHT22;3004;48.080;11.600;2023-06-22T16:04:07;32.00;99.90
5956;DHT22;3004;48.080;11.600;2023-06-22T16:06:59;31.90;99.90
5956;DHT22;3004;48.080;11.600;2023-06-22T16:09:57;31.80;99.90
5956;DHT22;3004;48.080;11.600;2023-06-22T16:16:18;31.90;99.90
5956;DHT22;3004;48.080;11.600;2023-06-22T16:19:12;31.90;99.90
5956;DHT22;3004;48.080;11.600;2023-06-22T16:21:56;31.90;99.90
5956;DHT22;3004;48.080;11.600;2023-06-22T16:25:09;32.00;99.90
5956;DHT22;3004;48.080;11.600;2023-06-22T16:31:57;32.00;99.90
5956;DHT22;3004;48.080;11.600;2023-06-22T16:34:26;32.00;99.90
5956;DHT22;3004;48.080;11.600;2023-06-22T16:37:27;31.90;99.90
5956;DHT22;3004;48.080;11.600;2023-06-22T16:40:09;31.70;99.90
5956;DHT22;3004;48.080;11.600;2023-06-22T16:43:04;31.50;99.90
5956;DHT22;3004;48.080;11.600;2023-06-22T18:04:09;20.20;99.90
5956;DHT22;3004;48.080;11.600;2023-06-22T18:07:00;20.30;99.90
5956;DHT22;3004;48.080;11.600;2023-06-22T18:09:39;20.20;99.90
